createdAt,value
2018-05-29T00:02:16.700Z,18.70
2018-05-29T00:04:47.845Z,18.70
2018-05-29T00:07:19.002Z,18.70
2018-05-29T00:09:49.565Z,18.70
2018-05-29T00:12:27.111Z,18.80
2018-05-29T00:14:59.205Z,18.70
2018-05-29T00:17:29.582Z,18.60
2018-05-29T00:19:59.981Z,18.70
2018-05-29T00:22:31.370Z,18.60
2018-05-29T00:25:01.762Z,18.40
2018-05-29T00:27:32.146Z,18.30
2018-05-29T00:30:03.534Z,18.50
2018-05-29T00:32:33.913Z,18.40
2018-05-29T00:35:04.306Z,18.30
2018-05-29T00:37:34.677Z,18.30
2018-05-29T00:40:05.047Z,18.40
2018-05-29T00:42:40.568Z,18.50
2018-05-29T00:45:11.660Z,18.20
2018-05-29T00:47:42.057Z,18.00
2018-05-29T00:50:12.447Z,18.20
2018-05-29T00:52:42.811Z,18.20
2018-05-29T00:55:40.780Z,18.20
2018-05-29T00:58:15.249Z,18.00
2018-05-29T01:00:45.616Z,18.00
2018-05-29T01:03:16.005Z,18.10
2018-05-29T01:05:47.133Z,18.20
2018-05-29T01:08:17.502Z,18.20
2018-05-29T01:10:47.903Z,18.10
2018-05-29T01:13:19.296Z,17.90
2018-05-29T01:15:49.659Z,18.00
2018-05-29T01:18:20.067Z,17.90
2018-05-29T01:20:52.479Z,17.80
2018-05-29T01:23:22.846Z,17.90
2018-05-29T01:25:53.259Z,17.90
2018-05-29T01:28:23.618Z,18.00
2018-05-29T01:31:01.110Z,18.00
2018-05-29T01:33:50.854Z,17.80
2018-05-29T01:36:21.233Z,17.90
2018-05-29T01:38:52.238Z,17.80
2018-05-29T01:41:22.597Z,17.90
2018-05-29T01:46:49.325Z,17.70
2018-05-29T01:49:19.725Z,17.60
2018-05-29T01:51:50.865Z,17.70
2018-05-29T01:54:22.002Z,17.70
2018-05-29T01:56:53.144Z,17.70
2018-05-29T01:59:23.510Z,17.70
2018-05-29T02:01:53.881Z,17.70
2018-05-29T02:04:25.329Z,17.80
2018-05-29T02:06:56.684Z,18.00
2018-05-29T02:09:27.828Z,18.10
2018-05-29T02:11:58.167Z,18.10
2018-05-29T02:14:29.308Z,17.50
2018-05-29T02:17:00.452Z,17.60
2018-05-29T02:19:31.617Z,17.70
2018-05-29T02:22:02.203Z,17.70
2018-05-29T02:24:32.590Z,17.80
2018-05-29T02:27:02.984Z,17.70
2018-05-29T02:29:34.113Z,17.80
2018-05-29T02:32:04.498Z,17.80
2018-05-29T02:34:34.880Z,17.70
2018-05-29T02:37:05.205Z,17.50
2018-05-29T02:39:35.565Z,17.50
2018-05-29T02:42:06.660Z,17.70
2018-05-29T02:44:37.028Z,17.70
2018-05-29T02:47:07.386Z,17.40
2018-05-29T02:49:43.921Z,17.40
2018-05-29T02:52:14.277Z,17.40
2018-05-29T02:55:06.092Z,17.50
2018-05-29T02:57:36.477Z,17.50
2018-05-29T03:00:07.601Z,17.30
2018-05-29T03:02:37.983Z,17.30
2018-05-29T03:05:08.356Z,17.50
2018-05-29T03:07:38.907Z,17.50
2018-05-29T03:10:10.063Z,17.70
2018-05-29T03:12:41.195Z,17.70
2018-05-29T03:15:11.556Z,17.60
2018-05-29T03:17:41.942Z,17.50
2018-05-29T03:20:12.310Z,17.30
2018-05-29T03:22:42.670Z,17.30
2018-05-29T03:25:13.062Z,17.20
2018-05-29T03:27:43.428Z,17.40
2018-05-29T03:30:13.798Z,17.60
2018-05-29T03:32:45.235Z,17.40
2018-05-29T03:35:16.253Z,17.40
2018-05-29T03:37:46.629Z,17.50
2018-05-29T03:40:16.960Z,17.40
2018-05-29T03:42:47.324Z,17.20
2018-05-29T03:45:17.705Z,17.10
2018-05-29T03:47:48.106Z,17.00
2018-05-29T03:50:19.240Z,17.20
2018-05-29T03:52:49.603Z,17.20
2018-05-29T03:55:19.991Z,17.20
2018-05-29T03:57:50.355Z,17.20
2018-05-29T04:00:20.717Z,17.40
2018-05-29T04:02:51.116Z,17.30
2018-05-29T04:05:21.431Z,17.50
2018-05-29T04:07:51.801Z,17.50
2018-05-29T04:10:22.375Z,17.40
2018-05-29T04:12:53.515Z,17.40
2018-05-29T04:15:24.644Z,17.30
2018-05-29T04:17:55.796Z,17.50
2018-05-29T04:20:26.941Z,17.40
2018-05-29T04:22:58.087Z,17.20
2018-05-29T04:25:29.251Z,17.20
2018-05-29T04:27:59.631Z,17.20
2018-05-29T04:30:29.992Z,17.20
2018-05-29T04:33:00.366Z,17.30
2018-05-29T04:35:32.447Z,17.20
2018-05-29T04:38:02.806Z,17.10
2018-05-29T04:40:33.958Z,17.20
2018-05-29T04:43:04.330Z,17.20
2018-05-29T04:45:34.702Z,17.20
2018-05-29T04:48:05.854Z,17.40
2018-05-29T04:50:36.223Z,17.40
2018-05-29T04:53:06.590Z,17.50
2018-05-29T04:55:38.770Z,17.30
2018-05-29T04:58:09.147Z,17.30
2018-05-29T05:00:39.518Z,17.20
2018-05-29T05:03:10.679Z,17.10
2018-05-29T05:05:41.040Z,17.00
2018-05-29T05:08:11.418Z,17.20
2018-05-29T05:10:41.806Z,17.20
2018-05-29T05:13:23.161Z,17.00
2018-05-29T05:16:00.712Z,17.40
2018-05-29T05:18:31.080Z,17.50
2018-05-29T05:21:03.489Z,17.60
2018-05-29T05:23:34.903Z,17.70
2018-05-29T05:26:05.946Z,17.70
2018-05-29T05:28:36.310Z,17.80
2018-05-29T05:31:06.648Z,17.80
2018-05-29T05:33:37.790Z,17.70
2018-05-29T05:36:08.156Z,17.70
2018-05-29T05:38:38.555Z,17.70
2018-05-29T05:41:09.690Z,17.90
2018-05-29T05:43:40.011Z,17.90
2018-05-29T05:46:13.458Z,18.00
2018-05-29T05:51:35.219Z,17.90
2018-05-29T05:54:07.571Z,18.10
2018-05-29T05:56:37.939Z,17.90
2018-05-29T05:59:08.333Z,17.70
2018-05-29T06:01:38.705Z,17.50
2018-05-29T06:04:09.080Z,17.60
2018-05-29T06:06:39.433Z,17.70
2018-05-29T06:09:09.803Z,17.80
2018-05-29T06:11:40.945Z,17.80
2018-05-29T06:14:12.101Z,18.00
2018-05-29T06:16:42.471Z,17.90
2018-05-29T06:19:12.842Z,18.00
2018-05-29T06:21:43.250Z,17.90
2018-05-29T06:24:14.392Z,18.20
2018-05-29T06:26:45.041Z,18.20
2018-05-29T06:29:16.215Z,18.00
2018-05-29T06:31:46.583Z,18.00
2018-05-29T06:34:17.741Z,17.90
2018-05-29T06:36:48.140Z,17.70
2018-05-29T06:39:18.511Z,17.90
2018-05-29T06:41:49.655Z,17.90
2018-05-29T06:44:20.810Z,18.00
2018-05-29T06:46:51.180Z,18.00
2018-05-29T06:49:40.670Z,18.00
2018-05-29T06:52:11.033Z,18.00
2018-05-29T06:54:42.164Z,18.10
2018-05-29T06:57:13.318Z,18.20
2018-05-29T06:59:44.454Z,18.40
2018-05-29T07:02:16.237Z,18.30
2018-05-29T07:04:46.640Z,18.30
2018-05-29T07:07:18.796Z,18.50
2018-05-29T07:09:49.158Z,18.50
2018-05-29T07:12:19.495Z,18.60
2018-05-29T07:14:49.870Z,18.40
2018-05-29T07:17:20.247Z,18.60
2018-05-29T07:19:50.675Z,18.80
2018-05-29T07:22:21.783Z,19.00
2018-05-29T07:24:52.925Z,19.00
2018-05-29T07:27:24.094Z,18.90
2018-05-29T07:29:55.484Z,18.90
2018-05-29T07:32:25.848Z,18.80
2018-05-29T07:34:56.262Z,18.90
2018-05-29T07:37:26.631Z,18.90
2018-05-29T07:39:57.006Z,18.60
2018-05-29T07:42:27.392Z,18.80
2018-05-29T07:44:59.802Z,18.60
2018-05-29T07:47:30.112Z,18.60
2018-05-29T07:50:00.507Z,18.60
2018-05-29T07:52:30.877Z,18.60
2018-05-29T07:55:01.243Z,18.50
2018-05-29T07:57:31.631Z,18.60
2018-05-29T08:00:02.014Z,18.60
2018-05-29T08:02:32.397Z,18.60
2018-05-29T08:05:02.799Z,18.60
2018-05-29T08:07:33.171Z,18.70
2018-05-29T08:10:03.544Z,18.90
2018-05-29T08:12:38.032Z,19.00
2018-05-29T08:15:08.398Z,19.00
2018-05-29T08:17:38.766Z,19.10
2018-05-29T08:20:09.189Z,19.10
2018-05-29T08:22:40.323Z,19.00
2018-05-29T08:25:12.754Z,19.00
2018-05-29T08:27:46.908Z,18.90
2018-05-29T08:30:17.285Z,19.00
2018-05-29T08:32:48.637Z,19.10
2018-05-29T08:35:26.162Z,19.10
2018-05-29T08:37:56.541Z,19.00
2018-05-29T08:40:26.942Z,19.10
2018-05-29T08:42:57.791Z,19.10
2018-05-29T08:45:28.169Z,19.10
2018-05-29T08:47:58.543Z,19.10
2018-05-29T08:50:29.721Z,19.20
2018-05-29T08:53:02.139Z,19.20
2018-05-29T08:55:32.460Z,19.00
2018-05-29T08:58:02.855Z,18.90
2018-05-29T09:00:40.542Z,19.00
2018-05-29T09:03:12.994Z,19.10
2018-05-29T09:05:44.384Z,19.10
2018-05-29T09:08:14.762Z,19.20
2018-05-29T09:10:45.147Z,19.20
2018-05-29T09:13:15.457Z,19.20
2018-05-29T09:16:05.179Z,19.10
2018-05-29T09:18:35.534Z,18.80
2018-05-29T09:21:05.904Z,18.70
2018-05-29T09:23:36.296Z,18.80
2018-05-29T09:26:06.718Z,18.80
2018-05-29T09:28:37.325Z,18.70
2018-05-29T09:31:07.742Z,18.50
2018-05-29T09:33:39.074Z,18.60
2018-05-29T09:36:10.325Z,18.40
2018-05-29T09:38:40.710Z,18.50
2018-05-29T09:41:11.087Z,18.50
2018-05-29T09:43:41.445Z,18.30
2018-05-29T09:46:11.840Z,18.30
2018-05-29T09:48:42.206Z,18.30
2018-05-29T09:51:12.601Z,18.30
2018-05-29T09:53:43.775Z,18.40
2018-05-29T09:56:14.787Z,18.30
2018-05-29T09:58:45.864Z,18.50
2018-05-29T10:01:16.309Z,18.50
2018-05-29T10:06:36.128Z,18.80
2018-05-29T10:09:09.451Z,18.80
2018-05-29T10:11:40.590Z,18.90
2018-05-29T10:14:10.976Z,18.90
2018-05-29T10:16:41.338Z,18.70
2018-05-29T10:19:11.708Z,18.60
2018-05-29T10:21:42.038Z,18.70
2018-05-29T10:24:14.442Z,18.70
2018-05-29T10:26:44.800Z,18.70
2018-05-29T10:29:15.187Z,18.70
2018-05-29T10:31:45.563Z,18.90
2018-05-29T10:34:17.360Z,18.90
2018-05-29T10:37:07.117Z,18.80
2018-05-29T10:39:37.472Z,19.00
2018-05-29T10:42:08.868Z,19.10
2018-05-29T10:44:40.023Z,19.00
2018-05-29T10:47:10.394Z,19.00
2018-05-29T10:49:42.797Z,19.20
2018-05-29T10:52:15.252Z,19.10
2018-05-29T10:54:47.576Z,19.20
2018-05-29T10:57:17.937Z,19.20
2018-05-29T11:00:10.748Z,19.10
2018-05-29T11:02:41.883Z,19.40
2018-05-29T11:05:13.023Z,19.30
2018-05-29T11:07:44.163Z,19.20
2018-05-29T11:10:15.299Z,19.20
2018-05-29T11:12:45.663Z,19.20
2018-05-29T11:15:16.056Z,19.30
2018-05-29T11:17:46.371Z,19.20
2018-05-29T11:20:16.739Z,19.20
2018-05-29T11:22:47.117Z,19.20
2018-05-29T11:25:17.478Z,19.20
2018-05-29T11:27:47.787Z,19.20
2018-05-29T11:30:18.170Z,19.20
2018-05-29T11:32:52.566Z,19.20
2018-05-29T11:35:22.924Z,19.30
2018-05-29T11:38:12.678Z,19.20
2018-05-29T11:40:43.047Z,19.20
2018-05-29T11:43:13.401Z,19.30
2018-05-29T11:45:43.794Z,19.20
2018-05-29T11:48:14.153Z,19.20
2018-05-29T11:50:45.286Z,19.40
2018-05-29T11:53:15.673Z,19.40
2018-05-29T11:55:50.126Z,19.30
2018-05-29T11:58:20.477Z,19.30
2018-05-29T12:00:51.608Z,19.50
2018-05-29T12:03:22.741Z,19.30
2018-05-29T12:05:53.105Z,19.40
2018-05-29T12:08:23.439Z,19.20
2018-05-29T12:10:53.810Z,19.20
2018-05-29T12:13:24.196Z,19.20
2018-05-29T12:15:54.533Z,19.30
2018-05-29T12:18:31.031Z,19.30
2018-05-29T12:21:02.417Z,19.30
2018-05-29T12:23:33.544Z,19.40
2018-05-29T12:26:04.672Z,19.30
2018-05-29T12:28:35.011Z,19.30
2018-05-29T12:31:05.369Z,19.40
2018-05-29T12:33:35.763Z,19.50
2018-05-29T12:36:06.105Z,19.50
2018-05-29T12:38:37.231Z,19.20
2018-05-29T12:41:07.602Z,19.20
2018-05-29T12:43:38.002Z,19.20
2018-05-29T12:46:08.397Z,19.30
2018-05-29T12:48:40.768Z,19.40
2018-05-29T12:51:11.177Z,19.40
2018-05-29T12:53:42.560Z,19.40
2018-05-29T12:56:12.932Z,19.50
2018-05-29T12:58:43.265Z,19.50
2018-05-29T13:01:20.959Z,19.50
2018-05-29T13:03:51.349Z,19.40
2018-05-29T13:06:22.418Z,19.80
2018-05-29T13:08:52.791Z,19.70
2018-05-29T13:11:23.457Z,19.90
2018-05-29T13:13:54.585Z,20.30
2018-05-29T13:16:25.716Z,20.40
2018-05-29T13:18:56.106Z,20.40
2018-05-29T13:21:29.239Z,20.50
2018-05-29T13:23:59.600Z,20.70
2018-05-29T13:26:29.999Z,20.70
2018-05-29T13:29:01.134Z,20.80
2018-05-29T13:31:31.501Z,20.80
2018-05-29T13:34:01.904Z,20.90
2018-05-29T13:36:33.049Z,20.80
2018-05-29T13:39:03.401Z,20.80
2018-05-29T13:41:34.010Z,21.00
2018-05-29T13:44:05.154Z,21.10
2018-05-29T13:46:36.302Z,21.20
2018-05-29T13:49:07.445Z,21.20
2018-05-29T13:51:38.799Z,21.20
2018-05-29T13:54:09.117Z,21.30
2018-05-29T13:56:42.335Z,21.20
2018-05-29T13:59:12.716Z,21.20
2018-05-29T14:01:43.107Z,21.30
2018-05-29T14:04:33.856Z,21.50
2018-05-29T14:07:05.007Z,21.80
2018-05-29T14:09:36.167Z,21.60
2018-05-29T14:12:06.560Z,21.60
2018-05-29T14:14:36.886Z,21.60
2018-05-29T14:17:07.269Z,21.60
2018-05-29T14:19:39.723Z,21.40
2018-05-29T14:25:00.348Z,21.10
2018-05-29T14:27:30.705Z,21.10
2018-05-29T14:30:01.072Z,21.30
2018-05-29T14:32:32.241Z,21.60
2018-05-29T14:35:02.601Z,21.50
2018-05-29T14:37:32.975Z,21.40
2018-05-29T14:40:04.122Z,21.50
2018-05-29T14:42:35.268Z,21.40
2018-05-29T14:45:06.400Z,21.80
2018-05-29T14:47:37.547Z,22.00
2018-05-29T14:50:08.687Z,22.10
2018-05-29T14:52:39.793Z,22.10
2018-05-29T14:55:11.498Z,22.20
2018-05-29T14:57:41.855Z,22.30
2018-05-29T15:00:16.258Z,22.20
2018-05-29T15:02:46.640Z,22.10
2018-05-29T15:05:17.008Z,22.10
2018-05-29T15:07:47.370Z,22.10
2018-05-29T15:10:17.708Z,22.10
2018-05-29T15:12:48.073Z,22.20
2018-05-29T15:15:18.433Z,22.30
2018-05-29T15:17:52.935Z,22.20
2018-05-29T15:20:23.309Z,22.10
2018-05-29T15:22:53.679Z,22.00
2018-05-29T15:25:24.012Z,22.10
2018-05-29T15:27:54.385Z,22.10
2018-05-29T15:30:24.753Z,22.10
2018-05-29T15:32:55.155Z,22.20
2018-05-29T15:35:25.524Z,22.20
2018-05-29T15:37:55.889Z,22.10
2018-05-29T15:40:26.923Z,22.20
2018-05-29T15:42:59.326Z,22.10
2018-05-29T15:45:37.913Z,22.10
2018-05-29T15:48:10.325Z,22.00
2018-05-29T15:50:40.676Z,21.90
2018-05-29T15:53:11.066Z,21.90
2018-05-29T15:55:42.443Z,21.80
2018-05-29T15:58:13.574Z,21.70
2018-05-29T16:00:44.715Z,21.70
2018-05-29T16:03:15.272Z,21.70
2018-05-29T16:05:45.583Z,21.70
2018-05-29T16:08:17.412Z,21.70
2018-05-29T16:10:47.775Z,21.70
2018-05-29T16:13:18.177Z,21.70
2018-05-29T16:15:48.562Z,21.70
2018-05-29T16:18:18.924Z,21.60
2018-05-29T16:20:49.288Z,21.50
2018-05-29T16:23:19.906Z,21.50
2018-05-29T16:25:53.077Z,21.40
2018-05-29T16:28:23.731Z,21.40
2018-05-29T16:30:56.921Z,21.40
2018-05-29T16:33:28.065Z,21.40
2018-05-29T16:35:58.429Z,21.40
2018-05-29T16:38:33.947Z,21.40
2018-05-29T16:41:04.317Z,21.40
2018-05-29T16:43:34.647Z,21.50
2018-05-29T16:46:05.031Z,21.50
2018-05-29T16:48:35.392Z,21.60
2018-05-29T16:51:06.456Z,21.60
2018-05-29T16:53:38.961Z,21.50
2018-05-29T16:56:09.325Z,21.50
2018-05-29T16:59:00.030Z,21.50
2018-05-29T17:01:30.407Z,21.50
2018-05-29T17:04:00.778Z,21.50
2018-05-29T17:06:31.184Z,21.50
2018-05-29T17:09:02.316Z,21.40
2018-05-29T17:11:32.697Z,21.40
2018-05-29T17:14:23.233Z,21.60
2018-05-29T17:16:54.609Z,21.60
2018-05-29T17:19:25.773Z,21.50
2018-05-29T17:21:56.183Z,21.40
2018-05-29T17:24:26.503Z,21.50
2018-05-29T17:26:57.646Z,21.40
2018-05-29T17:29:28.750Z,21.30
2018-05-29T17:31:59.141Z,21.30
2018-05-29T17:34:30.234Z,21.20
2018-05-29T17:37:00.622Z,21.20
2018-05-29T17:39:35.093Z,21.20
2018-05-29T17:42:05.445Z,21.20
2018-05-29T17:44:36.595Z,21.20
2018-05-29T17:47:07.700Z,21.20
2018-05-29T17:49:38.056Z,21.20
2018-05-29T17:52:08.449Z,21.20
2018-05-29T17:54:38.821Z,21.20
2018-05-29T17:57:09.181Z,21.20
2018-05-29T17:59:40.336Z,20.90
2018-05-29T18:02:12.739Z,20.90
2018-05-29T18:04:44.881Z,20.30
2018-05-29T18:07:15.266Z,20.30
2018-05-29T18:09:46.392Z,20.10
2018-05-29T18:12:16.663Z,20.00
2018-05-29T18:14:47.066Z,19.80
2018-05-29T18:17:20.507Z,19.60
2018-05-29T18:19:50.880Z,19.50
2018-05-29T18:22:21.268Z,19.20
2018-05-29T18:24:51.637Z,18.50
2018-05-29T18:27:22.000Z,18.00
2018-05-29T18:29:52.374Z,17.90
2018-05-29T18:32:22.996Z,17.90
2018-05-29T18:37:36.619Z,17.90
2018-05-29T18:40:06.980Z,17.90
2018-05-29T18:42:38.111Z,18.00
2018-05-29T18:45:08.696Z,17.90
2018-05-29T18:47:39.049Z,17.90
2018-05-29T18:50:09.421Z,17.90
2018-05-29T18:52:39.785Z,17.90
2018-05-29T18:55:10.146Z,17.80
2018-05-29T18:57:47.796Z,17.70
2018-05-29T19:00:18.099Z,17.90
2018-05-29T19:02:48.410Z,18.00
2018-05-29T19:05:19.555Z,18.00
2018-05-29T19:07:49.914Z,18.00
2018-05-29T19:10:40.639Z,17.90
2018-05-29T19:13:11.004Z,17.90
2018-05-29T19:15:41.316Z,18.00
2018-05-29T19:18:11.716Z,17.90
2018-05-29T19:20:42.277Z,17.90
2018-05-29T19:23:13.403Z,17.50
2018-05-29T19:25:43.782Z,17.50
2018-05-29T19:28:14.091Z,17.50
2018-05-29T19:30:44.467Z,17.50
2018-05-29T19:33:14.810Z,17.50
2018-05-29T19:35:45.116Z,17.70
2018-05-29T19:38:15.472Z,17.80
2018-05-29T19:40:46.616Z,17.70
2018-05-29T19:43:18.428Z,17.60
2018-05-29T19:45:49.811Z,17.60
2018-05-29T19:48:20.150Z,17.70
2018-05-29T19:50:50.476Z,17.60
2018-05-29T19:53:20.835Z,18.00
2018-05-29T19:55:51.440Z,17.90
2018-05-29T19:58:22.570Z,17.90
2018-05-29T20:00:53.701Z,18.00
2018-05-29T20:03:33.098Z,18.00
2018-05-29T20:06:04.483Z,18.20
2018-05-29T20:08:34.854Z,18.20
2018-05-29T20:11:05.237Z,17.90
2018-05-29T20:13:35.604Z,17.90
2018-05-29T20:16:05.964Z,18.00
2018-05-29T20:18:56.968Z,17.70
2018-05-29T20:21:47.732Z,17.80
2018-05-29T20:24:18.900Z,17.90
2018-05-29T20:26:49.265Z,17.90
2018-05-29T20:29:19.632Z,17.90
2018-05-29T20:31:50.021Z,17.90
2018-05-29T20:34:20.383Z,18.10
2018-05-29T20:36:51.558Z,17.80
2018-05-29T20:39:21.887Z,17.80
2018-05-29T20:41:59.423Z,17.80
2018-05-29T20:44:29.829Z,17.80
2018-05-29T20:47:00.175Z,17.90
2018-05-29T20:49:30.532Z,17.90
2018-05-29T20:52:00.875Z,17.70
2018-05-29T20:54:31.245Z,17.70
2018-05-29T20:57:01.604Z,17.70
2018-05-29T20:59:32.758Z,17.70
2018-05-29T21:02:03.130Z,17.60
2018-05-29T21:04:33.494Z,17.50
2018-05-29T21:07:04.654Z,17.60
2018-05-29T21:09:34.966Z,17.60
2018-05-29T21:12:06.092Z,17.90
2018-05-29T21:14:36.480Z,17.80
2018-05-29T21:17:06.875Z,17.50
2018-05-29T21:19:37.333Z,17.50
2018-05-29T21:22:26.256Z,17.70
2018-05-29T21:24:58.400Z,17.60
2018-05-29T21:27:30.855Z,17.60
2018-05-29T21:30:01.432Z,17.60
2018-05-29T21:32:31.801Z,17.80
2018-05-29T21:35:23.603Z,17.70
2018-05-29T21:37:54.421Z,17.70
2018-05-29T21:40:24.783Z,17.80
2018-05-29T21:42:55.188Z,17.60
2018-05-29T21:45:27.320Z,17.70
2018-05-29T21:47:57.684Z,17.60
2018-05-29T21:50:28.071Z,17.80
2018-05-29T21:52:58.451Z,17.70
2018-05-29T21:55:32.907Z,17.40
2018-05-29T21:58:03.300Z,17.30
2018-05-29T22:00:33.660Z,17.50
2018-05-29T22:03:04.708Z,17.60
2018-05-29T22:05:35.847Z,17.70
2018-05-29T22:08:06.224Z,17.80
2018-05-29T22:10:36.590Z,17.70
2018-05-29T22:13:06.986Z,17.70
2018-05-29T22:15:39.099Z,17.70
2018-05-29T22:18:09.470Z,17.70
2018-05-29T22:20:40.876Z,17.70
2018-05-29T22:23:11.529Z,17.80
2018-05-29T22:25:42.651Z,17.70
2018-05-29T22:28:13.041Z,17.70
2018-05-29T22:30:50.558Z,17.50
2018-05-29T22:33:21.976Z,17.50
2018-05-29T22:35:52.344Z,17.70
2018-05-29T22:38:22.718Z,17.80
2018-05-29T22:40:53.115Z,17.80
2018-05-29T22:43:24.241Z,17.70
2018-05-29T22:45:54.614Z,17.70
2018-05-29T22:48:25.011Z,17.80
2018-05-29T22:50:55.378Z,17.80
2018-05-29T22:56:18.780Z,17.50
2018-05-29T22:58:52.209Z,17.50
2018-05-29T23:01:23.351Z,17.40
2018-05-29T23:03:53.733Z,17.40
2018-05-29T23:06:28.180Z,17.30
2018-05-29T23:08:58.851Z,17.30
2018-05-29T23:11:29.984Z,17.20
2018-05-29T23:14:00.355Z,17.30
2018-05-29T23:16:31.771Z,17.30
2018-05-29T23:19:02.154Z,17.30
2018-05-29T23:21:34.564Z,17.20
2018-05-29T23:24:05.707Z,17.30
2018-05-29T23:26:36.851Z,17.30
2018-05-29T23:29:07.982Z,17.30
2018-05-29T23:31:38.376Z,17.30
2018-05-29T23:34:08.743Z,17.40
2018-05-29T23:36:39.293Z,17.50
2018-05-29T23:39:10.473Z,17.40
2018-05-29T23:41:40.847Z,17.40
2018-05-29T23:44:11.981Z,17.30
2018-05-29T23:46:42.371Z,17.30
2018-05-29T23:49:20.065Z,17.20
2018-05-29T23:51:54.757Z,17.20
2018-05-29T23:54:25.127Z,17.10
2018-05-29T23:57:03.337Z,17.20
2018-05-29T23:59:37.789Z,17.30
